Aviation Digital Data Service (ADDS)

Output produced by METARs form (2052 UTC 24 June 2018)
found at http://www.aviationweather.gov/adds/metars/
 
LBBG 242030Z 09004KT 9999 SCT032 16/13 Q1018 NOSIG
TAF LBBG 241700Z 2418/2518 14010KT 9999 FEW020 SCT045 
     BECMG 2419/2421 02006KT 
     BECMG 2507/2509 09014KT
       
LBGO 242030Z AUTO 08003KT 9999 BKN066/// 16/16 Q1017
TAF LBGO 241700Z 2418/2518 VRB04KT 9999 SCT050 
     BECMG 2510/2512 09010KT
       
LBIA 242000Z 07006KT 9999 SCT100 17/14 Q1018
LBPD 242030Z AUTO 12009KT 9999 BKN096/// 18/11 Q1016
TAF LBPD 241700Z 2418/2518 VRB04KT 9999 SCT050 
     BECMG 2508/2510 10012KT
       
LBPG 242000Z 09008KT 9999 BKN100 19/11 Q1016
LBSF 242030Z 00000KT 9999 FEW053 15/09 Q1018 NOSIG
TAF LBSF 241700Z 2418/2518 VRB04KT 9999 SCT050 
     BECMG 2507/2509 09010KT 
     TEMPO 2511/2518 5000 SHRA FEW030CB BKN040
       
LBWN 242030Z VRB01KT CAVOK 16/12 Q1018 NOSIG
TAF LBWN 241700Z 2418/2518 13010KT 9999 SCT035 
     BECMG 2421/2423 VRB04KT 
     BECMG 2507/2509 11012KT 
     BECMG 2516/2518 04008KT
       
LBBG 242030Z 09004KT 9999 SCT032 16/13 Q1018 NOSIG
TAF LBBG 241700Z 2418/2518 14010KT 9999 FEW020 SCT045 
     BECMG 2419/2421 02006KT 
     BECMG 2507/2509 09014KT
       
LBGO 242030Z AUTO 08003KT 9999 BKN066/// 16/16 Q1017
TAF LBGO 241700Z 2418/2518 VRB04KT 9999 SCT050 
     BECMG 2510/2512 09010KT
       
LBPD 242030Z AUTO 12009KT 9999 BKN096/// 18/11 Q1016
TAF LBPD 241700Z 2418/2518 VRB04KT 9999 SCT050 
     BECMG 2508/2510 10012KT
       
LBSF 242030Z 00000KT 9999 FEW053 15/09 Q1018 NOSIG
TAF LBSF 241700Z 2418/2518 VRB04KT 9999 SCT050 
     BECMG 2507/2509 09010KT 
     TEMPO 2511/2518 5000 SHRA FEW030CB BKN040
       
LBWN 242030Z VRB01KT CAVOK 16/12 Q1018 NOSIG
TAF LBWN 241700Z 2418/2518 13010KT 9999 SCT035 
     BECMG 2421/2423 VRB04KT 
     BECMG 2507/2509 11012KT 
     BECMG 2516/2518 04008KT